createdAt,value
2022-08-31T00:00:06.404Z,27.84
2022-08-31T00:01:06.390Z,27.84
2022-08-31T00:02:06.457Z,27.84
2022-08-31T00:03:06.366Z,27.79
2022-08-31T00:04:06.358Z,27.79
2022-08-31T00:05:06.345Z,27.74
2022-08-31T00:06:06.334Z,27.74
2022-08-31T00:07:06.326Z,27.76
2022-08-31T00:08:06.319Z,27.74
2022-08-31T00:09:06.303Z,27.74
2022-08-31T00:10:06.291Z,27.74
2022-08-31T00:11:06.280Z,27.74
2022-08-31T00:12:06.270Z,27.76
2022-08-31T00:13:06.892Z,27.79
2022-08-31T00:14:06.268Z,27.76
2022-08-31T00:15:06.236Z,27.74
2022-08-31T00:16:06.279Z,27.76
2022-08-31T00:17:06.219Z,27.73
2022-08-31T00:18:06.203Z,27.76
2022-08-31T00:19:06.195Z,27.74
2022-08-31T00:20:06.190Z,27.71
2022-08-31T00:21:06.175Z,27.71
2022-08-31T00:22:06.159Z,27.71
2022-08-31T00:23:06.163Z,27.71
2022-08-31T00:24:06.140Z,27.71
2022-08-31T00:25:06.127Z,27.71
2022-08-31T00:26:06.126Z,27.76
2022-08-31T00:27:06.105Z,27.70
2022-08-31T00:28:06.094Z,27.70
2022-08-31T00:29:06.086Z,27.74
2022-08-31T00:30:06.073Z,27.71
2022-08-31T00:31:06.061Z,27.69
2022-08-31T00:32:06.133Z,27.70
2022-08-31T00:33:06.043Z,27.69
2022-08-31T00:34:06.029Z,27.77
2022-08-31T00:35:06.021Z,27.71
2022-08-31T00:36:06.006Z,27.71
2022-08-31T00:37:05.996Z,27.70
2022-08-31T00:38:06.014Z,27.71
2022-08-31T00:39:05.975Z,27.73
2022-08-31T00:40:06.013Z,27.69
2022-08-31T00:41:05.951Z,27.70
2022-08-31T00:42:05.942Z,27.70
2022-08-31T00:43:05.935Z,27.64
2022-08-31T00:44:05.925Z,27.73
2022-08-31T00:45:05.909Z,27.70
2022-08-31T00:46:06.008Z,27.67
2022-08-31T00:47:05.888Z,27.70
2022-08-31T00:48:05.875Z,27.73
2022-08-31T00:49:05.864Z,27.73
2022-08-31T00:50:05.890Z,27.71
2022-08-31T00:51:05.843Z,27.70
2022-08-31T00:52:05.831Z,27.71
2022-08-31T00:53:05.821Z,27.64
2022-08-31T00:54:05.815Z,27.62
2022-08-31T00:55:05.799Z,27.73
2022-08-31T00:56:05.794Z,27.61
2022-08-31T00:57:05.779Z,27.62
2022-08-31T00:58:05.766Z,27.70
2022-08-31T00:59:05.755Z,27.62
2022-08-31T01:00:05.745Z,27.59
2022-08-31T01:01:05.780Z,27.59
2022-08-31T01:02:05.769Z,27.67
2022-08-31T01:03:05.710Z,27.70
2022-08-31T01:04:05.699Z,27.64
2022-08-31T01:05:05.689Z,27.64
2022-08-31T01:06:05.679Z,27.64
2022-08-31T01:07:05.668Z,27.66
2022-08-31T01:08:05.664Z,27.62
2022-08-31T01:09:05.646Z,27.67
2022-08-31T01:10:05.635Z,27.71
2022-08-31T01:11:05.623Z,27.64
2022-08-31T01:12:07.764Z,27.66
2022-08-31T01:13:05.601Z,27.62
2022-08-31T01:14:05.624Z,27.70
2022-08-31T01:15:05.579Z,27.69
2022-08-31T01:16:05.693Z,27.61
2022-08-31T01:17:05.560Z,27.67
2022-08-31T01:18:05.546Z,27.71
2022-08-31T01:19:05.535Z,27.67
2022-08-31T01:20:05.530Z,27.61
2022-08-31T01:21:05.513Z,27.54
2022-08-31T01:22:05.505Z,27.62
2022-08-31T01:23:05.492Z,27.54
2022-08-31T01:24:05.481Z,27.62
2022-08-31T01:25:05.470Z,27.57
2022-08-31T01:26:05.480Z,27.66
2022-08-31T01:27:05.448Z,27.54
2022-08-31T01:28:05.438Z,27.58
2022-08-31T01:29:05.426Z,27.62
2022-08-31T01:30:05.416Z,27.69
2022-08-31T01:31:05.542Z,27.54
2022-08-31T01:32:05.401Z,27.57
2022-08-31T01:33:05.395Z,27.62
2022-08-31T01:34:05.375Z,27.59
2022-08-31T01:35:05.361Z,27.51
2022-08-31T01:36:05.352Z,27.57
2022-08-31T01:37:05.339Z,27.54
2022-08-31T01:38:05.343Z,27.53
2022-08-31T01:39:05.319Z,27.54
2022-08-31T01:40:05.397Z,27.58
2022-08-31T01:41:05.297Z,27.59
2022-08-31T01:42:05.299Z,27.53
2022-08-31T01:43:05.276Z,27.54
2022-08-31T01:44:05.269Z,27.59
2022-08-31T01:45:05.252Z,27.57
2022-08-31T01:46:05.246Z,27.64
2022-08-31T01:47:05.303Z,27.54
2022-08-31T01:48:05.229Z,27.58
2022-08-31T01:49:05.208Z,27.62
2022-08-31T01:50:05.243Z,27.66
2022-08-31T01:51:05.186Z,27.53
2022-08-31T01:52:05.179Z,27.58
2022-08-31T01:53:05.167Z,27.66
2022-08-31T01:54:05.156Z,27.51
2022-08-31T01:55:05.144Z,27.59
2022-08-31T01:56:05.139Z,27.57
2022-08-31T01:57:05.120Z,27.54
2022-08-31T01:58:05.110Z,27.51
2022-08-31T01:59:08.275Z,27.61
2022-08-31T02:00:05.089Z,27.54
2022-08-31T02:01:10.327Z,27.58
2022-08-31T02:02:06.141Z,27.54
2022-08-31T02:03:05.057Z,27.59
2022-08-31T02:04:05.046Z,27.50
2022-08-31T02:05:05.035Z,27.59
2022-08-31T02:06:05.023Z,27.50
2022-08-31T02:07:05.013Z,27.59
2022-08-31T02:08:05.016Z,27.53
2022-08-31T02:09:04.989Z,27.53
2022-08-31T02:10:04.980Z,27.53
2022-08-31T02:11:04.967Z,27.59
2022-08-31T02:12:04.963Z,27.54
2022-08-31T02:13:04.945Z,27.54
2022-08-31T02:14:04.954Z,27.61
2022-08-31T02:15:04.924Z,27.53
2022-08-31T02:16:05.078Z,27.53
2022-08-31T02:17:04.903Z,27.53
2022-08-31T02:18:04.896Z,27.58
2022-08-31T02:19:04.883Z,27.53
2022-08-31T02:20:04.877Z,27.53
2022-08-31T02:21:04.858Z,27.58
2022-08-31T02:22:04.846Z,27.48
2022-08-31T02:23:04.837Z,27.58
2022-08-31T02:24:04.830Z,27.53
2022-08-31T02:25:04.819Z,27.57
2022-08-31T02:26:04.834Z,27.59
2022-08-31T02:27:04.796Z,27.50
2022-08-31T02:28:04.781Z,27.51
2022-08-31T02:29:04.796Z,27.54
2022-08-31T02:30:04.762Z,27.61
2022-08-31T02:31:04.877Z,27.57
2022-08-31T02:32:04.745Z,27.51
2022-08-31T02:33:04.732Z,27.57
2022-08-31T02:34:04.718Z,27.51
2022-08-31T02:35:04.706Z,27.51
2022-08-31T02:36:04.694Z,27.64
2022-08-31T02:37:04.683Z,27.54
2022-08-31T02:38:04.682Z,27.57
2022-08-31T02:39:05.469Z,27.54
2022-08-31T02:40:04.695Z,27.53
2022-08-31T02:41:04.639Z,27.48
2022-08-31T02:42:04.629Z,27.59
2022-08-31T02:43:04.619Z,27.50
2022-08-31T02:44:04.623Z,27.58
2022-08-31T02:45:04.595Z,27.53
2022-08-31T02:46:04.631Z,27.59
2022-08-31T02:47:04.574Z,27.54
2022-08-31T02:48:04.562Z,27.53
2022-08-31T02:49:04.553Z,27.61
2022-08-31T02:50:04.549Z,27.50
2022-08-31T02:51:04.531Z,27.61
2022-08-31T02:52:04.519Z,27.54
2022-08-31T02:53:04.510Z,27.48
2022-08-31T02:54:04.496Z,27.58
2022-08-31T02:55:04.488Z,27.58
2022-08-31T02:56:04.521Z,27.51
2022-08-31T02:57:04.464Z,27.62
2022-08-31T02:58:04.453Z,27.53
2022-08-31T02:59:04.442Z,27.59
2022-08-31T03:00:04.432Z,27.57
2022-08-31T03:01:04.459Z,27.57
2022-08-31T03:02:04.584Z,27.53
2022-08-31T03:03:04.480Z,27.53
2022-08-31T03:04:04.388Z,27.64
2022-08-31T03:05:04.376Z,27.57
2022-08-31T03:06:04.367Z,27.58
2022-08-31T03:07:04.354Z,27.61
2022-08-31T03:08:04.351Z,27.53
2022-08-31T03:09:04.336Z,27.53
2022-08-31T03:10:04.323Z,27.58
2022-08-31T03:11:04.311Z,27.48
2022-08-31T03:12:04.301Z,27.57
2022-08-31T03:13:04.290Z,27.57
2022-08-31T03:14:04.294Z,27.53
2022-08-31T03:15:04.269Z,27.57
2022-08-31T03:16:04.334Z,27.53
2022-08-31T03:17:04.257Z,27.53
2022-08-31T03:18:06.953Z,27.53
2022-08-31T03:19:04.223Z,27.43
2022-08-31T03:20:04.218Z,27.53
2022-08-31T03:21:04.201Z,27.57
2022-08-31T03:22:04.191Z,27.57
2022-08-31T03:23:04.500Z,27.57
2022-08-31T03:24:04.169Z,27.54
2022-08-31T03:25:04.158Z,27.48
2022-08-31T03:26:04.155Z,27.51
2022-08-31T03:27:04.137Z,27.51
2022-08-31T03:28:04.125Z,27.41
2022-08-31T03:29:04.115Z,27.53
2022-08-31T03:30:04.106Z,27.53
2022-08-31T03:31:04.181Z,27.53
2022-08-31T03:32:04.114Z,27.47
2022-08-31T03:33:04.077Z,27.57
2022-08-31T03:34:04.058Z,27.51
2022-08-31T03:35:04.051Z,27.42
2022-08-31T03:36:04.037Z,27.50
2022-08-31T03:37:04.027Z,27.54
2022-08-31T03:38:04.037Z,27.53
2022-08-31T03:39:04.004Z,27.54
2022-08-31T03:40:04.057Z,27.54
2022-08-31T03:41:03.982Z,27.42
2022-08-31T03:42:03.972Z,27.53
2022-08-31T03:43:03.962Z,27.54
2022-08-31T03:44:03.957Z,27.50
2022-08-31T03:45:03.939Z,27.43
2022-08-31T03:46:04.001Z,27.48
2022-08-31T03:47:04.918Z,27.42
2022-08-31T03:48:03.906Z,27.54
2022-08-31T03:49:03.896Z,27.50
2022-08-31T03:50:03.891Z,27.46
2022-08-31T03:51:03.874Z,27.48
2022-08-31T03:52:03.862Z,27.58
2022-08-31T03:53:03.852Z,27.50
2022-08-31T03:54:03.850Z,27.51
2022-08-31T03:55:03.829Z,27.48
2022-08-31T03:56:03.826Z,27.50
2022-08-31T03:57:03.807Z,27.41
2022-08-31T03:58:03.798Z,27.46
2022-08-31T03:59:03.786Z,27.48
2022-08-31T04:00:03.775Z,27.41
2022-08-31T04:01:03.968Z,27.51
2022-08-31T04:02:03.820Z,27.48
2022-08-31T04:03:03.812Z,27.50
2022-08-31T04:04:03.731Z,27.42
2022-08-31T04:05:03.720Z,27.51
2022-08-31T04:06:03.712Z,27.41
2022-08-31T04:07:03.699Z,27.43
2022-08-31T04:08:03.716Z,27.48
2022-08-31T04:09:03.677Z,27.53
2022-08-31T04:10:03.666Z,27.50
2022-08-31T04:11:03.655Z,27.46
2022-08-31T04:12:03.645Z,27.43
2022-08-31T04:13:04.078Z,27.57
2022-08-31T04:14:03.643Z,27.51
2022-08-31T04:15:03.616Z,27.53
2022-08-31T04:16:03.641Z,27.54
2022-08-31T04:17:03.589Z,27.51
2022-08-31T04:18:03.580Z,27.42
2022-08-31T04:19:03.569Z,27.48
2022-08-31T04:20:03.572Z,27.48
2022-08-31T04:21:03.546Z,27.46
2022-08-31T04:22:03.535Z,27.50
2022-08-31T04:23:03.529Z,27.50
2022-08-31T04:24:03.513Z,27.48
2022-08-31T04:25:03.501Z,27.54
2022-08-31T04:26:03.497Z,27.58
2022-08-31T04:27:03.480Z,27.42
2022-08-31T04:28:03.745Z,27.46
2022-08-31T04:29:03.458Z,27.58
2022-08-31T04:30:03.447Z,27.46
2022-08-31T04:32:19.107Z,27.54
2022-08-31T04:33:19.376Z,27.47
2022-08-31T04:34:19.081Z,27.48
2022-08-31T04:35:19.068Z,27.47
2022-08-31T04:36:19.059Z,27.50
2022-08-31T04:37:19.048Z,27.51
2022-08-31T04:38:19.070Z,27.54
2022-08-31T04:39:19.024Z,27.58
2022-08-31T04:40:19.174Z,27.41
2022-08-31T04:41:19.003Z,27.58
2022-08-31T04:42:18.991Z,27.53
2022-08-31T04:43:19.120Z,27.58
2022-08-31T04:44:20.168Z,27.58
2022-08-31T04:45:18.957Z,27.50
2022-08-31T04:46:19.038Z,27.54
2022-08-31T04:47:18.935Z,27.59
2022-08-31T04:48:18.923Z,27.53
2022-08-31T04:49:18.912Z,27.58
2022-08-31T04:50:18.920Z,27.59
2022-08-31T04:51:18.890Z,27.50
2022-08-31T04:52:18.879Z,27.54
2022-08-31T04:53:20.044Z,27.50
2022-08-31T04:54:18.859Z,27.54
2022-08-31T04:55:18.847Z,27.53
2022-08-31T04:56:18.842Z,27.58
2022-08-31T04:57:18.828Z,27.54
2022-08-31T04:58:18.813Z,27.59
2022-08-31T04:59:18.802Z,27.62
2022-08-31T05:00:19.166Z,27.57
2022-08-31T05:01:18.868Z,27.62
2022-08-31T05:02:18.825Z,27.53
2022-08-31T05:03:18.931Z,27.62
2022-08-31T05:04:18.746Z,27.51
2022-08-31T05:05:18.735Z,27.61
2022-08-31T05:06:18.726Z,27.54
2022-08-31T05:07:18.712Z,27.58
2022-08-31T05:08:18.706Z,27.57
2022-08-31T05:09:18.691Z,27.58
2022-08-31T05:10:18.680Z,27.64
2022-08-31T05:11:22.960Z,27.53
2022-08-31T05:12:19.659Z,27.57
2022-08-31T05:13:18.939Z,27.51
2022-08-31T05:14:18.663Z,27.51
2022-08-31T05:15:18.623Z,27.51
2022-08-31T05:16:18.709Z,27.54
2022-08-31T05:17:18.600Z,27.53
2022-08-31T05:18:18.591Z,27.53
2022-08-31T05:19:18.579Z,27.64
2022-08-31T05:20:18.583Z,27.53
2022-08-31T05:21:18.556Z,27.62
2022-08-31T05:22:18.545Z,27.54
2022-08-31T05:23:18.666Z,27.54
2022-08-31T05:24:18.523Z,27.57
2022-08-31T05:25:18.514Z,27.50
2022-08-31T05:26:18.515Z,27.61
2022-08-31T05:27:18.491Z,27.53
2022-08-31T05:28:18.478Z,27.62
2022-08-31T05:29:18.467Z,27.54
2022-08-31T05:30:18.455Z,27.59
2022-08-31T05:31:18.535Z,27.58
2022-08-31T05:32:18.440Z,27.53
2022-08-31T05:33:18.644Z,27.51
2022-08-31T05:34:18.410Z,27.57
2022-08-31T05:35:18.400Z,27.59
2022-08-31T05:36:18.389Z,27.59
2022-08-31T05:37:18.379Z,27.58
2022-08-31T05:38:18.374Z,27.57
2022-08-31T05:39:18.355Z,27.57
2022-08-31T05:40:18.402Z,27.59
2022-08-31T05:41:18.334Z,27.57
2022-08-31T05:42:18.322Z,27.53
2022-08-31T05:43:18.599Z,27.58
2022-08-31T05:44:18.306Z,27.62
2022-08-31T05:45:18.293Z,27.57
2022-08-31T05:46:18.324Z,27.54
2022-08-31T05:47:18.269Z,27.51
2022-08-31T05:48:18.256Z,27.61
2022-08-31T05:49:18.245Z,27.57
2022-08-31T05:50:18.239Z,27.58
2022-08-31T05:51:18.229Z,27.64
2022-08-31T05:52:18.210Z,27.53
2022-08-31T05:53:18.340Z,27.57
2022-08-31T05:54:18.193Z,27.67
2022-08-31T05:55:18.177Z,27.62
2022-08-31T05:56:19.142Z,27.69
2022-08-31T05:57:18.155Z,27.62
2022-08-31T05:58:18.144Z,27.66
2022-08-31T05:59:18.133Z,27.59
2022-08-31T06:00:18.120Z,27.66
2022-08-31T06:01:18.111Z,27.59
2022-08-31T06:02:18.158Z,27.69
2022-08-31T06:03:18.172Z,27.67
2022-08-31T06:04:18.079Z,27.64
2022-08-31T06:05:18.093Z,27.67
2022-08-31T06:06:18.056Z,27.54
2022-08-31T06:07:18.044Z,27.53
2022-08-31T06:08:18.036Z,27.70
2022-08-31T06:09:18.022Z,27.62
2022-08-31T06:10:18.010Z,27.62
2022-08-31T06:11:17.998Z,27.62
2022-08-31T06:12:17.987Z,27.67
2022-08-31T06:13:18.102Z,27.64
2022-08-31T06:14:17.971Z,27.61
2022-08-31T06:15:17.953Z,27.62
2022-08-31T06:16:18.051Z,27.67
2022-08-31T06:17:17.931Z,27.64
2022-08-31T06:18:17.921Z,27.67
2022-08-31T06:19:17.909Z,27.67
2022-08-31T06:20:18.254Z,27.66
2022-08-31T06:21:17.887Z,27.66
2022-08-31T06:22:17.876Z,27.62
2022-08-31T06:23:18.061Z,27.67
2022-08-31T06:24:17.855Z,27.69
2022-08-31T06:25:17.843Z,27.70
2022-08-31T06:26:17.848Z,27.66
2022-08-31T06:27:17.820Z,27.70
2022-08-31T06:28:17.809Z,27.67
2022-08-31T06:29:17.798Z,27.69
2022-08-31T06:30:17.789Z,27.73
2022-08-31T06:31:17.822Z,27.66
2022-08-31T06:32:17.768Z,27.69
2022-08-31T06:33:17.831Z,27.73
2022-08-31T06:34:17.743Z,27.66
2022-08-31T06:35:17.733Z,27.67
2022-08-31T06:36:17.722Z,27.69
2022-08-31T06:37:18.885Z,27.64
2022-08-31T06:38:17.703Z,27.71
2022-08-31T06:39:17.686Z,27.69
2022-08-31T06:40:17.728Z,27.71
2022-08-31T06:41:17.669Z,27.69
2022-08-31T06:42:17.653Z,27.66
2022-08-31T06:43:17.965Z,27.69
2022-08-31T06:44:17.639Z,27.70
2022-08-31T06:45:17.619Z,27.70
2022-08-31T06:46:17.694Z,27.71
2022-08-31T06:47:21.976Z,27.71
2022-08-31T06:48:18.584Z,27.67
2022-08-31T06:49:17.575Z,27.73
2022-08-31T06:50:17.569Z,27.76
2022-08-31T06:51:17.552Z,27.70
2022-08-31T06:52:17.542Z,27.69
2022-08-31T06:53:17.799Z,27.70
2022-08-31T06:54:31.372Z,27.74
2022-08-31T06:55:18.518Z,27.71
2022-08-31T06:56:20.481Z,27.76
2022-08-31T06:57:17.488Z,27.79
2022-08-31T06:58:17.474Z,27.74
2022-08-31T06:59:17.465Z,27.79
2022-08-31T07:00:17.453Z,27.71
2022-08-31T07:01:21.596Z,27.76
2022-08-31T07:02:18.583Z,27.73
2022-08-31T07:03:17.664Z,27.70
2022-08-31T07:04:17.408Z,27.77
2022-08-31T07:05:19.941Z,27.77
2022-08-31T07:06:18.892Z,27.77
2022-08-31T07:07:17.396Z,27.79
2022-08-31T07:08:17.384Z,27.79
2022-08-31T07:09:17.373Z,27.79
2022-08-31T07:10:17.363Z,27.76
2022-08-31T07:11:17.357Z,27.76
2022-08-31T07:12:17.345Z,27.79
2022-08-31T07:13:17.525Z,27.79
2022-08-31T07:14:17.318Z,27.79
2022-08-31T07:15:17.309Z,27.76
2022-08-31T07:16:17.386Z,27.79
2022-08-31T07:17:17.285Z,27.85
2022-08-31T07:18:17.304Z,27.82
2022-08-31T07:19:17.263Z,27.84
2022-08-31T07:20:17.253Z,27.79
2022-08-31T07:21:17.252Z,27.80
2022-08-31T07:22:17.233Z,27.76
2022-08-31T07:23:17.294Z,27.84
2022-08-31T07:24:17.214Z,27.84
2022-08-31T07:25:17.196Z,27.84
2022-08-31T07:26:17.186Z,27.89
2022-08-31T07:27:17.174Z,27.82
2022-08-31T07:28:17.162Z,27.86
2022-08-31T07:29:17.153Z,27.89
2022-08-31T07:30:17.145Z,27.86
2022-08-31T07:31:17.216Z,27.85
2022-08-31T07:32:17.118Z,27.86
2022-08-31T07:33:17.126Z,27.82
2022-08-31T07:34:17.095Z,27.89
2022-08-31T07:35:17.085Z,27.91
2022-08-31T07:36:17.078Z,27.84
2022-08-31T07:37:17.064Z,27.92
2022-08-31T07:38:17.054Z,27.86
2022-08-31T07:39:17.040Z,27.86
2022-08-31T07:40:17.094Z,27.94
2022-08-31T07:41:17.018Z,27.89
2022-08-31T07:42:17.013Z,27.86
2022-08-31T07:43:16.995Z,27.88
2022-08-31T07:44:16.984Z,27.85
2022-08-31T07:45:16.973Z,27.95
2022-08-31T07:46:17.051Z,27.95
2022-08-31T07:47:16.951Z,27.85
2022-08-31T07:48:16.946Z,27.95
2022-08-31T07:49:16.929Z,27.88
2022-08-31T07:50:16.917Z,27.92
2022-08-31T07:51:16.908Z,27.99
2022-08-31T07:52:16.898Z,27.88
2022-08-31T07:53:16.885Z,27.99
2022-08-31T07:54:16.879Z,28.01
2022-08-31T07:55:16.863Z,27.96
2022-08-31T07:56:16.858Z,27.98
2022-08-31T07:57:16.839Z,27.89
2022-08-31T07:58:16.829Z,27.89
2022-08-31T07:59:16.818Z,27.98
2022-08-31T08:00:16.828Z,27.91
2022-08-31T08:01:16.795Z,28.01
2022-08-31T08:02:17.695Z,27.96
2022-08-31T08:03:16.905Z,27.96
2022-08-31T08:04:16.762Z,27.94
2022-08-31T08:05:16.751Z,28.03
2022-08-31T08:06:16.746Z,28.04
2022-08-31T08:07:16.728Z,27.99
2022-08-31T08:08:16.719Z,27.96
2022-08-31T08:09:24.978Z,27.99
2022-08-31T08:10:17.694Z,27.99
2022-08-31T08:11:16.936Z,27.98
2022-08-31T08:12:16.694Z,28.01
2022-08-31T08:13:16.727Z,28.07
2022-08-31T08:14:16.652Z,28.03
2022-08-31T08:15:16.656Z,27.96
2022-08-31T08:16:16.684Z,28.03
2022-08-31T08:17:16.618Z,28.09
2022-08-31T08:18:16.612Z,28.06
2022-08-31T08:19:16.596Z,28.06
2022-08-31T08:20:16.584Z,28.04
2022-08-31T08:21:17.571Z,28.07
2022-08-31T08:22:30.642Z,28.06
2022-08-31T08:23:28.168Z,28.09
2022-08-31T08:24:17.538Z,28.11
2022-08-31T08:25:16.592Z,28.11
2022-08-31T08:26:21.072Z,28.10
2022-08-31T08:27:17.505Z,28.14
2022-08-31T08:28:36.044Z,28.16
2022-08-31T08:29:17.491Z,28.17
2022-08-31T08:30:16.476Z,28.16
2022-08-31T08:31:16.552Z,28.21
2022-08-31T08:32:17.630Z,28.26
2022-08-31T08:33:16.440Z,28.22
2022-08-31T08:34:16.433Z,28.26
2022-08-31T08:35:16.433Z,28.22
2022-08-31T08:36:16.406Z,28.17
2022-08-31T08:37:16.395Z,28.29
2022-08-31T08:38:16.385Z,28.25
2022-08-31T08:39:16.373Z,28.28
2022-08-31T08:40:16.380Z,28.25
2022-08-31T08:41:16.358Z,28.28
2022-08-31T08:42:16.329Z,28.28
2022-08-31T08:43:16.323Z,28.31
2022-08-31T08:44:17.796Z,28.40
2022-08-31T08:45:16.286Z,28.31
2022-08-31T08:46:34.036Z,28.26
2022-08-31T08:47:17.268Z,28.29
2022-08-31T08:48:16.251Z,28.35
2022-08-31T08:49:16.265Z,28.47
2022-08-31T08:50:16.234Z,28.46
2022-08-31T08:51:16.217Z,28.40
2022-08-31T08:52:16.207Z,28.40
2022-08-31T08:53:16.201Z,28.43
2022-08-31T08:54:16.185Z,28.51
2022-08-31T08:55:16.180Z,28.38
2022-08-31T08:56:32.230Z,28.48
2022-08-31T08:57:17.150Z,28.40
2022-08-31T08:58:16.143Z,28.43
2022-08-31T08:59:19.537Z,28.47
2022-08-31T09:00:16.118Z,28.53
2022-08-31T09:01:16.174Z,28.50
2022-08-31T09:02:16.138Z,28.58
2022-08-31T09:03:16.092Z,28.59
2022-08-31T09:04:16.073Z,28.44
2022-08-31T09:05:16.067Z,28.47
2022-08-31T09:06:16.051Z,28.59
2022-08-31T09:07:16.041Z,28.53
2022-08-31T09:08:16.032Z,28.56
2022-08-31T09:09:16.018Z,28.50
2022-08-31T09:10:16.006Z,28.58
2022-08-31T09:11:16.003Z,28.53
2022-08-31T09:12:15.986Z,28.60
2022-08-31T09:13:15.974Z,28.56
2022-08-31T09:14:15.962Z,28.56
2022-08-31T09:15:15.957Z,28.60
2022-08-31T09:16:15.983Z,28.63
2022-08-31T09:17:15.952Z,28.62
2022-08-31T09:18:15.919Z,28.66
2022-08-31T09:19:15.911Z,28.60
2022-08-31T09:20:15.895Z,28.63
2022-08-31T09:21:15.885Z,28.69
2022-08-31T09:22:15.877Z,28.68
2022-08-31T09:23:15.873Z,28.69
2022-08-31T09:24:15.851Z,28.75
2022-08-31T09:25:15.840Z,28.70
2022-08-31T09:26:15.829Z,28.75
2022-08-31T09:27:15.819Z,28.68
2022-08-31T09:28:15.808Z,28.75
2022-08-31T09:29:15.826Z,28.75
2022-08-31T09:30:15.785Z,28.81
2022-08-31T09:31:15.818Z,28.81
2022-08-31T09:32:15.763Z,28.81
2022-08-31T09:33:15.751Z,28.87
2022-08-31T09:34:15.748Z,28.88
2022-08-31T09:35:15.738Z,28.84
2022-08-31T09:36:15.718Z,28.90
2022-08-31T09:37:15.707Z,28.91
2022-08-31T09:38:15.697Z,28.95
2022-08-31T09:39:15.685Z,28.91
2022-08-31T09:40:15.729Z,29.03
2022-08-31T09:41:15.670Z,28.97
2022-08-31T09:42:15.654Z,28.95
2022-08-31T09:43:17.827Z,28.96
2022-08-31T09:44:15.630Z,29.01
2022-08-31T09:45:15.618Z,29.07
2022-08-31T09:46:15.654Z,29.04
2022-08-31T09:47:15.603Z,29.11
2022-08-31T09:48:15.586Z,29.08
2022-08-31T09:49:15.575Z,29.06
2022-08-31T09:50:15.563Z,29.13
2022-08-31T09:51:15.553Z,29.11
2022-08-31T09:52:15.541Z,29.10
2022-08-31T09:53:15.541Z,29.07
2022-08-31T09:54:15.519Z,29.22
2022-08-31T09:55:15.509Z,29.26
2022-08-31T09:56:15.567Z,29.22
2022-08-31T09:57:15.488Z,29.29
2022-08-31T09:58:15.475Z,29.29
2022-08-31T09:59:15.471Z,29.31
2022-08-31T10:00:15.501Z,29.31
2022-08-31T10:01:15.523Z,29.38
2022-08-31T10:02:15.431Z,29.45
2022-08-31T10:03:15.421Z,29.55
2022-08-31T10:04:15.409Z,29.41
2022-08-31T10:05:15.468Z,29.49
2022-08-31T10:06:15.388Z,29.57
2022-08-31T10:07:15.376Z,29.68
2022-08-31T10:08:18.974Z,29.63
2022-08-31T10:09:15.360Z,29.55
2022-08-31T10:10:30.238Z,29.65
2022-08-31T10:11:16.337Z,29.74
2022-08-31T10:12:15.320Z,29.87
2022-08-31T10:13:15.405Z,29.94
2022-08-31T10:14:15.301Z,29.90
2022-08-31T10:15:15.759Z,30.16
2022-08-31T10:16:15.373Z,30.27
2022-08-31T10:17:15.376Z,30.23
2022-08-31T10:18:15.256Z,30.21
2022-08-31T10:19:15.242Z,30.15
2022-08-31T10:20:15.231Z,30.08
2022-08-31T10:21:15.221Z,30.05
2022-08-31T10:22:15.209Z,30.19
2022-08-31T10:23:15.308Z,30.19
2022-08-31T10:24:15.188Z,30.09
2022-08-31T10:25:15.176Z,30.00
2022-08-31T10:26:15.168Z,30.07
2022-08-31T10:27:15.154Z,30.02
2022-08-31T10:28:15.144Z,29.96
2022-08-31T10:29:19.990Z,29.96
2022-08-31T10:30:16.126Z,29.92
2022-08-31T10:31:15.159Z,29.84
2022-08-31T10:32:15.101Z,29.87
2022-08-31T10:33:15.176Z,29.93
2022-08-31T10:34:15.078Z,29.87
2022-08-31T10:35:15.086Z,29.90
2022-08-31T10:36:15.055Z,30.00
2022-08-31T10:37:15.043Z,30.02
2022-08-31T10:38:19.801Z,29.97
2022-08-31T10:39:16.019Z,29.90
2022-08-31T10:40:15.039Z,29.90
2022-08-31T10:41:15.028Z,29.86
2022-08-31T10:42:14.988Z,29.86
2022-08-31T10:43:15.035Z,29.77
2022-08-31T10:44:14.974Z,29.92
2022-08-31T10:45:18.387Z,30.03
2022-08-31T10:46:15.075Z,30.03
2022-08-31T10:47:22.784Z,30.00
2022-08-31T10:48:15.920Z,29.97
2022-08-31T10:49:14.911Z,29.99
2022-08-31T10:50:14.899Z,29.96
2022-08-31T10:51:14.890Z,30.02
2022-08-31T10:52:14.877Z,30.62
2022-08-31T10:53:14.894Z,30.57
2022-08-31T10:54:14.858Z,30.78
2022-08-31T10:55:14.846Z,30.56
2022-08-31T10:56:14.834Z,30.47
2022-08-31T10:57:21.319Z,30.53
2022-08-31T10:58:15.815Z,31.17
2022-08-31T10:59:14.800Z,31.67
2022-08-31T11:00:14.789Z,32.20
2022-08-31T11:01:14.815Z,32.57
2022-08-31T11:02:14.767Z,32.85
2022-08-31T11:03:14.807Z,32.52
2022-08-31T11:04:14.835Z,32.11
2022-08-31T11:05:14.735Z,31.80
2022-08-31T11:06:14.723Z,31.68
2022-08-31T11:07:14.711Z,31.62
2022-08-31T11:08:14.701Z,32.00
2022-08-31T11:09:14.720Z,32.29
2022-08-31T11:10:14.699Z,32.73
2022-08-31T11:11:14.667Z,33.19
2022-08-31T11:12:14.656Z,33.46
2022-08-31T11:13:14.658Z,33.70
2022-08-31T11:14:14.633Z,34.01
2022-08-31T11:15:14.622Z,33.61
2022-08-31T11:16:14.670Z,33.26
2022-08-31T11:17:14.603Z,33.68
2022-08-31T11:18:14.590Z,34.07
2022-08-31T11:19:14.578Z,34.29
2022-08-31T11:20:14.567Z,34.38
2022-08-31T11:21:15.660Z,33.78
2022-08-31T11:22:14.601Z,33.42
2022-08-31T11:23:14.617Z,33.46
2022-08-31T11:24:14.524Z,33.94
2022-08-31T11:25:14.513Z,34.39
2022-08-31T11:26:14.502Z,34.54
2022-08-31T11:27:14.492Z,34.73
2022-08-31T11:28:14.486Z,34.80
2022-08-31T11:29:14.469Z,34.89
2022-08-31T11:30:14.460Z,35.02
2022-08-31T11:31:14.545Z,35.17
2022-08-31T11:32:14.436Z,35.26
2022-08-31T11:33:14.478Z,35.36
2022-08-31T11:34:16.793Z,35.40
2022-08-31T11:35:14.410Z,35.48
2022-08-31T11:36:14.394Z,35.54
2022-08-31T11:37:14.381Z,35.44
2022-08-31T11:38:14.370Z,35.55
2022-08-31T11:39:14.360Z,35.50
2022-08-31T11:40:14.461Z,35.40
2022-08-31T11:41:14.337Z,34.89
2022-08-31T11:42:14.327Z,34.57
2022-08-31T11:43:14.355Z,34.53
2022-08-31T11:44:14.304Z,34.24
2022-08-31T11:45:14.295Z,33.89
2022-08-31T11:46:17.446Z,33.63
2022-08-31T11:47:14.271Z,33.45
2022-08-31T11:48:14.261Z,33.36
2022-08-31T11:49:14.252Z,33.14
2022-08-31T11:50:14.244Z,33.34
2022-08-31T11:51:14.229Z,33.57
2022-08-31T11:52:14.223Z,33.71
2022-08-31T11:53:14.226Z,33.80
2022-08-31T11:54:14.195Z,33.45
2022-08-31T11:55:14.184Z,33.37
2022-08-31T11:56:14.174Z,33.14
2022-08-31T11:57:14.162Z,33.01
2022-08-31T11:58:20.751Z,32.81
2022-08-31T11:59:15.140Z,32.79
2022-08-31T12:00:14.130Z,32.59
2022-08-31T12:01:14.118Z,32.61
2022-08-31T12:02:14.154Z,32.59
2022-08-31T12:03:14.170Z,32.42
2022-08-31T12:04:14.092Z,32.37
2022-08-31T12:05:15.108Z,32.24
2022-08-31T12:06:14.064Z,32.22
2022-08-31T12:07:14.054Z,32.10
2022-08-31T12:08:14.041Z,32.10
2022-08-31T12:09:14.031Z,32.03
2022-08-31T12:10:14.102Z,31.99
2022-08-31T12:11:14.010Z,31.88
2022-08-31T12:12:13.999Z,31.77
2022-08-31T12:13:14.077Z,31.82
2022-08-31T12:14:13.977Z,31.60
2022-08-31T12:15:13.966Z,31.60
2022-08-31T12:16:14.022Z,31.53
2022-08-31T12:17:13.945Z,31.42
2022-08-31T12:18:13.933Z,31.40
2022-08-31T12:19:13.922Z,31.30
2022-08-31T12:20:13.911Z,31.35
2022-08-31T12:21:13.899Z,31.26
2022-08-31T12:22:13.896Z,31.31
2022-08-31T12:23:18.699Z,31.43
2022-08-31T12:24:18.618Z,31.49
2022-08-31T12:25:13.857Z,31.53
2022-08-31T12:26:13.846Z,31.45
2022-08-31T12:27:13.836Z,31.64
2022-08-31T12:28:13.846Z,31.61
2022-08-31T12:29:13.817Z,31.58
2022-08-31T12:30:13.802Z,31.62
2022-08-31T12:31:13.832Z,31.65
2022-08-31T12:32:13.780Z,31.79
2022-08-31T12:33:13.769Z,31.67
2022-08-31T12:34:13.765Z,31.62
2022-08-31T12:35:13.750Z,31.55
2022-08-31T12:36:13.738Z,31.38
2022-08-31T12:37:13.726Z,31.33
2022-08-31T12:38:13.716Z,31.39
2022-08-31T12:39:13.706Z,31.48
2022-08-31T12:40:13.751Z,31.35
2022-08-31T12:41:13.684Z,31.40
2022-08-31T12:42:13.674Z,31.42
2022-08-31T12:43:13.663Z,31.49
2022-08-31T12:44:14.505Z,31.61
2022-08-31T12:45:13.642Z,31.58
2022-08-31T12:46:13.723Z,31.42
2022-08-31T12:47:13.619Z,31.35
2022-08-31T12:48:13.609Z,31.39
2022-08-31T12:49:13.604Z,31.35
2022-08-31T12:50:15.889Z,31.30
2022-08-31T12:51:13.576Z,31.18
2022-08-31T12:52:13.573Z,31.12
2022-08-31T12:53:13.556Z,31.12